RJCB

Details ICAO RJCB (OBO)
Name OBIHIRO
Region Japan
Timezone Asia/Tokyo (UTC+9.0)
Plans Departing 8
Arriving 9
Stats Elevation 505 ft / 154 m (AMSL)
Location 42.733601° 143.217426°
Runways 1
Magnetic Variation 9.073° W
Sunrise 2017-12-17 21:53:43 UTC / 2017-12-18 06:53:43 Local
Sunset 2017-12-18 06:56:06 UTC / 2017-12-18 15:56:06 Local
Advertisement - Login to hide

Runways

ID Width Length Bearing (true) Bearing (mag) Surface Threshold Offset Overrun Length
17 150 ft / 46 m 8,209 ft / 2,502 m 159.37° 168.44° Asphalt 0 ft / 0 m 200 ft / 61 m
35 150 ft / 46 m 8,209 ft / 2,502 m 339.37° 348.44° Asphalt 0 ft / 0 m 200 ft / 61 m

Approach Navaids

Runway Type Ident Frequency Range Bearing (true) Bearing (mag) Slope Elevation
35 Localiser IOB 111.70 MHz 18 nm / 33 km 339.37° 348.44° - 505 ft / 154 m (AMSL)
35 Glidescope IOB 111.70 MHz 10 nm / 19 km 339.37° 348.44° 3.00° 505 ft / 154 m (AMSL)

Map

Weather


0- 5 10 15 20 25 30 35+ Temperature / ° C

Clouds and Precipitation
Forecast for 2017-12-18 12:00 UTC. Updated 16 minutes ago

Ground ~20,000 ft ~40,000 ft Winds

METAR

RJCB 181100Z VRB02KT 9999 FEW040 SCT100 BKN/// M11/M16 Q1013

TAF

TAF TAF RJCB 180508Z 1806/1912 17005KT 9999 FEW040 BECMG 1821/1900 35005KT

Frequencies

Tower 123.60 MHz TWR
Tower 118.70 MHz TWR
Tower 126.20 MHz TWR
Warning: Do not use this data for real-world aviation or navigation. No guarantee of current accuracy is given.